Time;durP1;ratioP1;P1;durP2;ratioP2;P2;SDS_P1;SDS_P2;PMS_P1;PMS_P2;Temp;Humidity;BMP_temperature;BMP_pressure;BME280_temperature;BME280_humidity;BME280_pressure;Samples;Min_cycle;Max_cycle;Signal;HPM_P1;HPM_P2
2021/07/23 01:21:26;;;;;;;11.25;5.75;;;14.90;99.90;;;;;;5046047;22;20279;-84
2021/07/23 01:23:55;;;;;;;9.63;7.20;;;14.80;99.90;;;;;;5038589;28;20216;-83
2021/07/23 01:26:23;;;;;;;8.80;6.38;;;14.90;99.90;;;;;;5048331;28;20205;-84
2021/07/23 01:28:50;;;;;;;9.80;5.60;;;14.90;99.90;;;;;;5037378;28;20201;-83
2021/07/23 01:31:17;;;;;;;11.23;6.05;;;14.90;99.90;;;;;;5055037;28;20305;-83
2021/07/23 01:33:44;;;;;;;12.57;5.65;;;14.90;99.90;;;;;;5063331;28;20207;-83
2021/07/23 01:36:11;;;;;;;6.07;5.47;;;15.00;99.90;;;;;;5066269;28;20518;-82
2021/07/23 01:38:40;;;;;;;7.35;5.75;;;15.00;99.90;;;;;;5063641;28;20235;-83
2021/07/23 01:41:09;;;;;;;8.43;6.55;;;14.90;99.90;;;;;;5060003;28;20213;-83
2021/07/23 01:43:38;;;;;;;9.23;6.15;;;15.10;99.90;;;;;;5061419;28;20209;-84
2021/07/23 01:46:05;;;;;;;8.85;6.35;;;15.10;99.90;;;;;;5049335;28;20215;-84
2021/07/23 01:48:32;;;;;;;8.07;6.57;;;15.10;99.90;;;;;;5059069;28;20208;-83
2021/07/23 01:50:59;;;;;;;8.45;7.15;;;15.10;99.90;;;;;;5058274;28;20234;-84
2021/07/23 01:53:26;;;;;;;7.03;6.30;;;15.20;99.90;;;;;;5070115;28;20207;-84
2021/07/23 01:55:53;;;;;;;6.45;5.38;;;15.20;99.90;;;;;;5054638;28;20193;-82
2021/07/23 01:58:22;;;;;;;9.15;6.00;;;15.40;99.90;;;;;;5052247;28;20199;-80
2021/07/23 02:00:49;;;;;;;8.45;5.88;;;15.40;99.90;;;;;;5056456;28;20198;-81
2021/07/23 02:03:17;;;;;;;8.98;5.32;;;15.50;99.90;;;;;;5070003;28;20288;-80
2021/07/23 02:05:44;;;;;;;8.73;5.97;;;15.50;99.90;;;;;;5059540;28;20243;-81
2021/07/23 02:08:11;;;;;;;6.68;5.30;;;15.70;99.90;;;;;;5066365;28;20214;-81
2021/07/23 02:10:38;;;;;;;11.52;6.40;;;15.70;99.90;;;;;;5066220;28;20199;-81
2021/07/23 02:13:05;;;;;;;8.05;6.68;;;15.80;99.90;;;;;;5065217;28;20202;-81
2021/07/23 02:15:34;;;;;;;8.20;5.50;;;15.80;99.90;;;;;;5077611;28;20184;-81
2021/07/23 02:18:01;;;;;;;5.38;4.88;;;15.90;99.90;;;;;;5069840;28;20270;-81
2021/07/23 02:20:28;;;;;;;8.18;7.38;;;15.90;99.90;;;;;;5072553;28;20212;-81
2021/07/23 02:22:55;;;;;;;7.20;6.60;;;15.90;99.90;;;;;;5066688;28;20274;-82
2021/07/23 02:25:23;;;;;;;8.82;6.25;;;15.90;99.90;;;;;;5062550;28;20192;-81
2021/07/23 02:27:50;;;;;;;13.00;8.35;;;16.00;99.90;;;;;;5066352;28;20205;-82
2021/07/23 02:30:17;;;;;;;9.00;8.07;;;15.90;99.90;;;;;;5052942;28;20222;-81
2021/07/23 02:32:45;;;;;;;9.88;8.88;;;15.90;99.90;;;;;;5055714;28;20180;-82
2021/07/23 02:35:13;;;;;;;9.23;7.45;;;15.90;99.90;;;;;;5055201;28;20210;-84
2021/07/23 02:37:40;;;;;;;11.18;8.38;;;16.00;99.90;;;;;;5055190;28;20216;-82
2021/07/23 02:40:09;;;;;;;10.68;8.75;;;15.90;99.90;;;;;;5049968;28;20224;-83
2021/07/23 02:42:36;;;;;;;10.10;8.27;;;16.00;99.90;;;;;;5047444;28;20225;-83
2021/07/23 02:45:03;;;;;;;11.90;7.30;;;16.00;99.90;;;;;;5042462;28;20224;-84
2021/07/23 02:47:30;;;;;;;9.52;8.20;;;16.00;99.90;;;;;;5051728;28;20213;-83
2021/07/23 02:49:58;;;;;;;9.70;8.05;;;16.00;99.90;;;;;;5056188;28;20238;-82
2021/07/23 02:52:25;;;;;;;13.90;8.93;;;16.00;99.90;;;;;;5044781;28;20200;-82
2021/07/23 02:54:52;;;;;;;11.25;9.77;;;15.90;99.90;;;;;;5045101;28;20204;-84
2021/07/23 02:57:20;;;;;;;9.07;8.18;;;15.80;99.90;;;;;;5038143;28;20215;-83
2021/07/23 02:59:47;;;;;;;14.05;10.20;;;15.90;99.90;;;;;;5042750;28;20201;-84
2021/07/23 03:02:14;;;;;;;12.85;9.13;;;15.90;99.90;;;;;;5051797;28;20228;-84
2021/07/23 03:04:41;;;;;;;12.70;8.90;;;15.90;99.90;;;;;;5047655;28;20212;-83
2021/07/23 03:07:09;;;;;;;9.73;8.10;;;15.90;99.90;;;;;;5042564;28;20204;-83
2021/07/23 03:09:36;;;;;;;12.63;11.25;;;15.90;99.90;;;;;;5047745;28;20284;-82
2021/07/23 03:12:04;;;;;;;13.18;8.98;;;15.90;99.90;;;;;;5047650;28;20204;-84
2021/07/23 03:14:32;;;;;;;14.35;10.73;;;16.00;99.90;;;;;;5044199;28;20196;-82
2021/07/23 03:16:59;;;;;;;15.00;10.55;;;16.00;99.90;;;;;;5048676;28;20211;-83
2021/07/23 03:19:26;;;;;;;12.40;10.50;;;16.00;99.90;;;;;;5048382;28;20216;-83
2021/07/23 03:21:54;;;;;;;14.13;10.98;;;15.90;99.90;;;;;;5066443;28;20613;-83
2021/07/23 03:24:23;;;;;;;13.63;8.32;;;15.90;99.90;;;;;;5077103;28;20245;-84
2021/07/23 03:26:50;;;;;;;13.05;9.73;;;15.90;99.90;;;;;;5072557;28;20287;-84
2021/07/23 03:29:17;;;;;;;13.45;11.90;;;16.00;99.90;;;;;;5071200;28;20208;-85
2021/07/23 03:31:44;;;;;;;17.30;12.82;;;16.00;99.90;;;;;;5070781;28;20231;-85
2021/07/23 03:34:11;;;;;;;15.43;13.13;;;16.10;99.90;;;;;;5058694;28;20204;-84
2021/07/23 03:36:38;;;;;;;18.48;11.18;;;16.10;99.90;;;;;;5060157;28;20212;-84
2021/07/23 03:39:05;;;;;;;17.15;13.05;;;16.00;99.90;;;;;;5062535;28;20242;-84
2021/07/23 03:41:34;;;;;;;14.32;10.23;;;16.00;99.90;;;;;;5070579;28;20218;-84
2021/07/23 03:44:01;;;;;;;22.35;12.30;;;16.00;99.90;;;;;;5076420;28;20250;-84
2021/07/23 03:46:28;;;;;;;20.73;15.30;;;16.00;99.90;;;;;;5083567;28;20206;-84
2021/07/23 03:48:56;;;;;;;18.02;15.43;;;16.00;99.90;;;;;;5076933;28;20196;-84
2021/07/23 03:51:23;;;;;;;16.52;13.93;;;15.90;99.90;;;;;;5055496;28;20232;-84
2021/07/23 03:53:50;;;;;;;25.35;15.70;;;15.80;99.90;;;;;;5058466;28;20687;-84
2021/07/23 03:56:18;;;;;;;20.15;14.00;;;15.70;99.90;;;;;;5066834;28;20222;-84
2021/07/23 03:58:46;;;;;;;17.60;14.60;;;15.60;99.90;;;;;;5071155;28;20203;-84
2021/07/23 04:01:13;;;;;;;21.50;15.95;;;15.50;99.90;;;;;;5065197;28;20224;-83
2021/07/23 04:03:41;;;;;;;23.38;15.73;;;15.50;99.90;;;;;;5077279;28;20221;-85
2021/07/23 04:06:08;;;;;;;16.77;13.82;;;15.50;99.90;;;;;;5071333;28;20235;-84
2021/07/23 04:08:35;;;;;;;19.77;15.25;;;15.50;99.90;;;;;;5066090;28;20203;-84
2021/07/23 04:11:02;;;;;;;20.35;15.02;;;15.50;99.90;;;;;;5073523;28;20605;-84
2021/07/23 04:13:29;;;;;;;16.67;14.35;;;15.50;99.90;;;;;;5071399;28;20262;-83
2021/07/23 04:15:58;;;;;;;18.95;13.20;;;15.50;99.90;;;;;;5068966;28;20199;-84
2021/07/23 04:18:25;;;;;;;19.00;14.50;;;15.60;99.90;;;;;;5061266;28;20200;-84
2021/07/23 04:20:52;;;;;;;15.98;12.90;;;15.60;99.90;;;;;;5067342;28;20227;-83
2021/07/23 04:23:19;;;;;;;17.52;13.50;;;15.60;99.90;;;;;;5071088;28;20238;-84
2021/07/23 04:25:46;;;;;;;18.65;13.18;;;15.70;99.90;;;;;;5085388;28;20258;-84
2021/07/23 04:28:13;;;;;;;17.25;13.48;;;15.70;99.90;;;;;;5090792;28;20484;-82
2021/07/23 04:30:40;;;;;;;15.55;13.90;;;15.70;99.90;;;;;;5072427;28;20219;-84
2021/07/23 04:33:09;;;;;;;16.42;13.10;;;15.70;99.90;;;;;;5076290;28;20200;-84
2021/07/23 04:35:36;;;;;;;15.73;13.98;;;15.70;99.90;;;;;;5081351;28;20191;-83
2021/07/23 04:38:03;;;;;;;18.25;13.23;;;15.70;99.90;;;;;;5084668;28;20554;-85
2021/07/23 04:40:30;;;;;;;19.33;12.23;;;15.70;99.90;;;;;;5069326;28;20275;-85
2021/07/23 04:42:59;;;;;;;14.90;12.52;;;15.70;99.90;;;;;;5088419;28;20229;-83
2021/07/23 04:45:26;;;;;;;15.40;12.63;;;15.70;99.90;;;;;;5072316;28;20204;-82
2021/07/23 04:47:53;;;;;;;16.35;12.48;;;15.70;99.90;;;;;;5063190;28;20407;-85
2021/07/23 04:50:21;;;;;;;14.70;13.20;;;15.70;99.90;;;;;;5082350;28;20234;-84
2021/07/23 04:52:48;;;;;;;14.13;12.25;;;15.80;99.90;;;;;;5080986;28;20192;-82
2021/07/23 04:55:16;;;;;;;15.82;12.18;;;15.80;99.90;;;;;;5068986;28;20199;-84
2021/07/23 04:57:44;;;;;;;15.05;10.88;;;15.80;99.90;;;;;;5068385;28;20211;-85
2021/07/23 05:00:13;;;;;;;14.77;11.75;;;15.80;99.90;;;;;;5079652;28;20230;-84
2021/07/23 05:02:41;;;;;;;18.52;11.52;;;15.90;99.90;;;;;;5082375;28;20229;-83
2021/07/23 05:05:12;;;;;;;13.77;9.65;;;15.90;99.90;;;;;;5084208;28;20211;-84
2021/07/23 05:07:41;;;;;;;18.38;10.25;;;15.90;99.90;;;;;;5091070;28;20221;-83
2021/07/23 05:10:09;;;;;;;11.98;9.85;;;16.10;99.90;;;;;;5069793;28;20229;-84
2021/07/23 05:12:38;;;;;;;11.00;9.63;;;16.20;99.90;;;;;;5068474;28;20226;-82
2021/07/23 05:15:08;;;;;;;15.70;8.57;;;16.40;99.90;;;;;;5078248;28;20590;-84
2021/07/23 05:17:38;;;;;;;11.82;9.00;;;16.60;99.90;;;;;;5078127;28;20221;-83
2021/07/23 05:20:07;;;;;;;18.55;12.13;;;16.70;99.90;;;;;;5085830;28;20261;-82
2021/07/23 05:22:35;;;;;;;22.50;14.80;;;16.90;99.90;;;;;;5075046;28;20227;-83
2021/07/23 05:25:04;;;;;;;12.20;10.32;;;17.00;99.90;;;;;;5077505;28;20208;-84
2021/07/23 05:27:31;;;;;;;18.85;13.20;;;17.00;99.90;;;;;;5085756;28;20232;-83
2021/07/23 05:29:59;;;;;;;27.42;19.40;;;17.00;99.90;;;;;;5073376;28;20225;-83
2021/07/23 05:32:26;;;;;;;18.13;15.27;;;17.10;99.90;;;;;;5079152;28;20202;-82
2021/07/23 05:34:54;;;;;;;24.60;19.75;;;17.00;99.90;;;;;;5075839;28;20216;-84
2021/07/23 05:37:21;;;;;;;44.83;34.53;;;17.00;99.90;;;;;;5067965;28;20274;-83
2021/07/23 05:39:48;;;;;;;22.00;16.27;;;17.10;99.90;;;;;;5069637;28;20443;-83
2021/07/23 05:42:16;;;;;;;33.78;26.55;;;17.10;99.90;;;;;;5078957;28;20200;-83
2021/07/23 05:44:43;;;;;;;33.90;22.67;;;17.20;99.90;;;;;;5077423;28;20217;-83
2021/07/23 05:47:10;;;;;;;20.40;15.85;;;17.10;99.90;;;;;;5071738;28;20208;-83
2021/07/23 05:49:38;;;;;;;19.95;15.35;;;17.00;99.90;;;;;;5064943;28;20202;-83
2021/07/23 05:52:06;;;;;;;20.57;16.13;;;17.20;99.90;;;;;;5074741;28;20203;-85
2021/07/23 05:54:33;;;;;;;18.13;14.63;;;17.20;99.90;;;;;;5068465;28;20945;-83
2021/07/23 05:57:00;;;;;;;17.67;15.43;;;17.30;99.90;;;;;;5067588;28;20513;-83
2021/07/23 05:59:30;;;;;;;23.63;16.05;;;17.30;99.90;;;;;;5070557;28;20441;-83
2021/07/23 06:01:57;;;;;;;24.40;17.33;;;17.20;99.90;;;;;;5078490;28;20225;-83
2021/07/23 06:04:24;;;;;;;45.88;33.03;;;17.20;99.90;;;;;;5074454;28;20225;-81
2021/07/23 06:06:51;;;;;;;25.85;20.02;;;17.20;99.90;;;;;;5063438;28;20202;-83
2021/07/23 06:09:22;;;;;;;28.25;22.20;;;17.20;99.90;;;;;;5075238;28;20244;-83
2021/07/23 06:11:49;;;;;;;25.50;18.60;;;17.20;99.90;;;;;;5088993;28;20230;-84
2021/07/23 06:14:16;;;;;;;19.77;16.30;;;17.20;99.90;;;;;;5080861;28;20434;-83
2021/07/23 06:16:45;;;;;;;23.92;15.57;;;17.20;99.90;;;;;;5080482;28;20236;-85
2021/07/23 06:19:12;;;;;;;28.08;21.67;;;17.20;99.90;;;;;;5079984;28;20206;-82
2021/07/23 06:21:39;;;;;;;27.30;19.50;;;17.20;99.90;;;;;;5074462;28;20274;-85
2021/07/23 06:24:06;;;;;;;26.05;17.65;;;17.30;99.90;;;;;;5070426;28;20241;-83
2021/07/23 06:26:37;;;;;;;24.60;17.10;;;17.30;99.90;;;;;;5072454;28;20217;-82
2021/07/23 06:29:04;;;;;;;20.63;15.35;;;17.30;99.90;;;;;;5070265;28;20203;-84
2021/07/23 06:31:31;;;;;;;24.38;20.33;;;17.30;99.90;;;;;;5069103;28;20226;-85
2021/07/23 06:34:00;;;;;;;24.75;15.05;;;17.50;99.90;;;;;;5068968;28;20550;-83
2021/07/23 06:36:27;;;;;;;25.88;17.95;;;17.50;99.90;;;;;;5069069;28;20226;-83
2021/07/23 06:38:54;;;;;;;23.40;17.70;;;17.50;99.90;;;;;;5069866;28;20209;-83
2021/07/23 06:41:24;;;;;;;18.77;14.77;;;17.70;99.90;;;;;;5074695;28;20238;-83
2021/07/23 06:43:51;;;;;;;23.47;16.87;;;17.80;99.90;;;;;;5077965;28;20499;-84
2021/07/23 06:46:18;;;;;;;24.50;18.23;;;18.00;99.90;;;;;;5072074;28;20460;-83
2021/07/23 06:48:45;;;;;;;24.40;15.68;;;18.20;99.90;;;;;;5080212;28;20209;-84
2021/07/23 06:51:14;;;;;;;19.93;14.90;;;18.10;99.90;;;;;;5075961;28;20202;-85
2021/07/23 06:53:41;;;;;;;21.27;15.07;;;18.20;99.90;;;;;;5067773;28;20453;-84
2021/07/23 06:56:09;;;;;;;23.87;17.10;;;18.30;99.90;;;;;;5074848;28;20216;-83
2021/07/23 06:58:36;;;;;;;22.43;15.70;;;18.40;99.90;;;;;;5073950;28;20527;-83
2021/07/23 07:01:07;;;;;;;31.43;16.80;;;18.40;99.90;;;;;;5069056;28;20454;-83
2021/07/23 07:03:35;;;;;;;20.93;15.60;;;18.50;99.90;;;;;;5070751;28;20496;-84
2021/07/23 07:06:04;;;;;;;25.93;15.53;;;18.70;99.90;;;;;;5088439;28;20448;-83
2021/07/23 07:08:33;;;;;;;22.53;16.17;;;18.80;99.90;;;;;;5071506;28;20469;-82
2021/07/23 07:11:04;;;;;;;13.67;10.90;;;18.90;99.90;;;;;;5086131;28;20488;-80
2021/07/23 07:13:31;;;;;;;16.37;13.93;;;19.20;99.90;;;;;;5074887;28;20504;-83
2021/07/23 07:15:58;;;;;;;18.93;13.67;;;19.40;99.90;;;;;;5081023;28;20441;-83
2021/07/23 07:18:25;;;;;;;16.13;13.27;;;19.90;99.90;;;;;;5076075;28;20435;-84
2021/07/23 07:20:52;;;;;;;12.10;9.67;;;20.10;99.90;;;;;;5068377;28;20478;-84
2021/07/23 07:23:19;;;;;;;13.80;11.33;;;20.50;99.90;;;;;;5076450;28;20801;-84
2021/07/23 07:25:51;;;;;;;17.47;12.37;;;20.80;99.90;;;;;;5071066;28;20497;-84
2021/07/23 07:28:18;;;;;;;15.37;11.33;;;21.30;99.90;;;;;;5079898;28;20466;-82
2021/07/23 07:34:20;;;;;;;11.77;10.17;;;21.80;99.90;;;;;;5066518;28;20492;-84
2021/07/23 07:36:52;;;;;;;12.77;9.20;;;22.10;99.90;;;;;;5071686;28;20457;-83
2021/07/23 07:39:32;;;;;;;12.77;9.57;;;22.10;99.90;;;;;;5081829;28;20519;-84
2021/07/23 07:45:18;;;;;;;13.57;10.60;;;22.00;99.90;;;;;;5009766;28;20508;-83
2021/07/23 07:48:03;;;;;;;13.00;10.27;;;21.70;99.90;;;;;;5060214;28;20456;-84
2021/07/23 07:50:55;;;;;;;19.20;13.90;;;21.60;99.90;;;;;;5050548;28;20457;-83
2021/07/23 07:53:39;;;;;;;14.00;11.40;;;21.30;99.90;;;;;;5041857;28;20485;-84
2021/07/23 07:56:30;;;;;;;14.03;10.67;;;21.30;99.90;;;;;;5055868;28;20456;-83
2021/07/23 07:59:27;;;;;;;17.77;13.70;;;20.80;99.90;;;;;;5067614;28;20454;-83
2021/07/23 08:01:57;;;;;;;16.17;11.87;;;20.80;99.90;;;;;;5046542;28;20475;-84
2021/07/23 08:04:31;;;;;;;14.23;9.70;;;20.70;99.90;;;;;;5049855;28;20483;-82
2021/07/23 08:07:06;;;;;;;14.67;11.60;;;20.60;99.90;;;;;;5051194;28;20447;-83
2021/07/23 08:10:14;;;;;;;16.47;12.60;;;20.50;99.90;;;;;;5063058;28;20441;-83
2021/07/23 08:13:02;;;;;;;;;;;;;;;;;;;;;
2021/07/23 08:15:45;;;;;;;15.43;10.57;;;20.10;99.90;;;;;;5063263;28;20469;-85
2021/07/23 08:18:18;;;;;;;17.93;12.57;;;20.20;99.90;;;;;;5059874;28;20454;-84
2021/07/23 08:21:11;;;;;;;15.90;9.90;;;20.10;99.90;;;;;;5062252;28;20466;-84
2021/07/23 08:23:40;;;;;;;15.30;10.80;;;20.10;99.90;;;;;;5042602;28;20479;-84
2021/07/23 08:26:34;;;;;;;14.60;10.90;;;20.10;99.90;;;;;;5049489;28;20451;-81
2021/07/23 08:29:24;;;;;;;17.73;11.00;;;20.00;99.90;;;;;;5040791;28;20506;-84
2021/07/23 08:32:48;;;;;;;16.13;11.67;;;20.00;99.90;;;;;;5062690;28;20473;-84
2021/07/23 08:38:42;;;;;;;18.60;11.90;;;20.10;99.90;;;;;;4928091;28;20427;-84
2021/07/23 08:41:45;;;;;;;15.27;11.70;;;20.20;99.90;;;;;;5060408;28;20515;-83
2021/07/23 08:44:29;;;;;;;;;;;;;;;;;;;;;
2021/07/23 08:53:14;;;;;;;16.73;12.30;;;20.40;99.90;;;;;;5046338;28;20450;-83
2021/07/23 08:56:46;;;;;;;;;;;;;;;;;;;;;
2021/07/23 08:59:22;;;;;;;15.83;13.10;;;20.60;99.90;;;;;;5021584;28;20473;-85
2021/07/23 09:02:09;;;;;;;13.30;11.90;;;20.70;99.90;;;;;;5058318;28;20446;-85
2021/07/23 09:05:04;;;;;;;14.87;12.47;;;20.60;99.90;;;;;;5052390;28;20496;-84
2021/07/23 09:11:22;;;;;;;17.33;13.37;;;20.40;99.90;;;;;;4973015;28;20497;-84
2021/07/23 09:14:01;;;;;;;21.80;15.40;;;20.30;99.90;;;;;;5041066;28;20454;-83
2021/07/23 09:20:09;;;;;;;19.30;16.17;;;20.20;99.90;;;;;;4997965;28;20934;-83
2021/07/23 09:23:00;;;;;;;20.30;16.27;;;20.20;99.90;;;;;;5050852;28;20541;-84
2021/07/23 09:36:04;;;;;;;23.23;17.20;;;20.20;99.90;;;;;;4900156;28;20593;-83
2021/07/23 09:42:21;;;;;;;22.60;16.87;;;20.20;99.90;;;;;;4960442;28;20434;-83
2021/07/23 09:44:48;;;;;;;16.57;14.57;;;20.20;99.90;;;;;;5011254;28;20490;-84
2021/07/23 09:47:25;;;;;;;20.27;17.03;;;20.30;99.90;;;;;;5056811;28;20973;-84
2021/07/23 09:49:54;;;;;;;22.10;17.40;;;20.30;99.90;;;;;;5053461;28;20569;-84
2021/07/23 09:52:23;;;;;;;17.33;15.40;;;20.50;99.90;;;;;;5064184;28;20435;-84
2021/07/23 09:54:50;;;;;;;22.50;16.53;;;20.50;99.90;;;;;;5058311;28;20430;-82
2021/07/23 09:57:21;;;;;;;19.27;15.10;;;20.50;99.90;;;;;;5058724;28;20470;-85
2021/07/23 09:59:59;;;;;;;19.80;16.43;;;20.60;99.90;;;;;;5060070;28;20474;-84
2021/07/23 10:02:28;;;;;;;18.33;16.17;;;20.80;99.90;;;;;;5052544;28;20461;-84
2021/07/23 10:05:04;;;;;;;17.70;15.40;;;21.10;99.90;;;;;;5057773;28;20612;-84
2021/07/23 10:07:38;;;;;;;17.30;13.37;;;21.20;99.90;;;;;;5059534;28;20487;-81
2021/07/23 10:10:09;;;;;;;15.80;13.97;;;21.40;99.90;;;;;;5062073;28;21080;-85
2021/07/23 10:12:38;;;;;;;15.70;13.83;;;21.70;99.90;;;;;;5052074;28;20454;-83
2021/07/23 10:15:06;;;;;;;14.70;13.10;;;22.00;99.90;;;;;;5055382;28;20921;-84
2021/07/23 10:17:37;;;;;;;17.63;15.40;;;22.20;99.90;;;;;;5053713;28;20482;-83
2021/07/23 10:20:05;;;;;;;13.93;11.93;;;22.30;99.90;;;;;;5054129;28;20477;-84
2021/07/23 10:22:34;;;;;;;15.20;13.23;;;22.30;99.90;;;;;;5060560;28;20484;-84
2021/07/23 10:25:02;;;;;;;19.63;17.47;;;22.30;99.90;;;;;;5061516;28;20486;-84
2021/07/23 10:27:30;;;;;;;14.60;13.13;;;22.50;99.90;;;;;;5053333;28;20514;-86
2021/07/23 10:29:57;;;;;;;19.27;17.10;;;22.70;99.90;;;;;;5063365;28;20525;-83
2021/07/23 10:32:36;;;;;;;17.80;14.57;;;22.70;99.90;;;;;;5050630;28;20476;-84
2021/07/23 10:35:45;;;;;;;12.10;10.87;;;22.50;99.90;;;;;;5055625;28;20502;-84
2021/07/23 10:38:22;;;;;;;13.17;11.73;;;22.40;99.90;;;;;;5021262;28;20529;-84
2021/07/23 10:40:49;;;;;;;14.37;11.10;;;22.40;99.90;;;;;;5048453;28;20496;-83
2021/07/23 10:43:37;;;;;;;11.10;9.80;;;22.20;99.90;;;;;;5048575;28;20537;-85
2021/07/23 10:46:05;;;;;;;12.80;11.50;;;22.10;99.90;;;;;;5060897;28;20475;-84
2021/07/23 10:48:50;;;;;;;12.70;11.40;;;21.90;99.90;;;;;;5024429;28;20460;-83
2021/07/23 10:51:50;;;;;;;16.23;10.10;;;21.70;99.90;;;;;;5050322;28;20489;-84
2021/07/23 10:54:26;;;;;;;9.10;8.30;;;21.60;99.90;;;;;;5049840;28;20480;-83
2021/07/23 10:57:17;;;;;;;12.90;9.20;;;21.50;99.90;;;;;;5050511;28;20464;-83
2021/07/23 10:59:58;;;;;;;10.73;7.30;;;21.30;99.90;;;;;;5051251;28;20553;-82
2021/07/23 11:02:55;;;;;;;8.77;7.50;;;21.40;99.90;;;;;;5055947;28;20452;-83
2021/07/23 11:05:22;;;;;;;9.87;8.37;;;21.20;99.90;;;;;;4965630;28;20488;-85
2021/07/23 11:07:56;;;;;;;8.57;7.03;;;21.10;99.90;;;;;;5031157;28;20509;-83
2021/07/23 11:10:25;;;;;;;7.90;6.97;;;21.20;99.90;;;;;;5048307;28;20467;-84
2021/07/23 11:12:53;;;;;;;12.77;9.00;;;21.30;99.90;;;;;;5055217;28;20460;-84
2021/07/23 11:15:22;;;;;;;9.70;8.70;;;21.40;99.90;;;;;;5051004;28;20540;-84
2021/07/23 11:17:55;;;;;;;9.17;8.17;;;21.30;99.90;;;;;;5052688;28;20438;-86
2021/07/23 11:20:28;;;;;;;9.83;8.20;;;21.40;99.90;;;;;;5052086;28;20469;-84
2021/07/23 11:22:56;;;;;;;9.50;7.67;;;21.40;99.90;;;;;;5055608;28;20446;-84
2021/07/23 11:25:26;;;;;;;8.70;7.80;;;21.50;99.90;;;;;;5058824;28;20486;-84
2021/07/23 11:27:54;;;;;;;9.80;7.70;;;21.60;99.90;;;;;;5063125;28;20476;-84
2021/07/23 11:30:25;;;;;;;9.90;7.30;;;21.50;99.90;;;;;;5055125;28;20466;-84
2021/07/23 11:32:54;;;;;;;11.37;8.83;;;21.60;99.90;;;;;;5047992;28;20472;-83
2021/07/23 11:35:22;;;;;;;10.27;7.77;;;21.60;99.90;;;;;;5047309;28;20456;-84
2021/07/23 11:37:50;;;;;;;10.10;7.87;;;21.70;99.90;;;;;;5051557;28;20438;-82
2021/07/23 11:40:19;;;;;;;10.03;7.80;;;21.70;99.90;;;;;;5061766;28;20528;-81
2021/07/23 11:42:50;;;;;;;7.60;6.90;;;21.80;99.90;;;;;;5054787;28;20453;-81
2021/07/23 11:45:19;;;;;;;6.30;5.63;;;22.00;99.90;;;;;;5059245;28;20463;-82
2021/07/23 11:47:48;;;;;;;11.80;7.40;;;22.10;99.90;;;;;;5050825;28;20438;-83
2021/07/23 11:50:17;;;;;;;8.53;6.37;;;22.30;99.90;;;;;;5051690;28;20471;-83
2021/07/23 11:52:45;;;;;;;8.03;7.10;;;22.80;99.90;;;;;;5053426;28;20440;-84
2021/07/23 11:55:13;;;;;;;7.87;7.07;;;23.10;99.90;;;;;;5059769;28;20442;-83
2021/07/23 11:57:42;;;;;;;8.60;7.40;;;23.20;99.90;;;;;;5069150;28;20444;-82
2021/07/23 12:00:23;;;;;;;9.07;7.20;;;23.30;99.90;;;;;;5067034;28;20522;-82
2021/07/23 12:02:52;;;;;;;10.00;8.23;;;23.50;99.90;;;;;;5056123;28;20474;-84
2021/07/23 12:05:20;;;;;;;6.90;5.97;;;23.60;99.90;;;;;;5063129;28;20542;-82
2021/07/23 12:07:58;;;;;;;7.60;6.77;;;23.70;99.90;;;;;;5058681;28;20446;-82
2021/07/23 12:10:26;;;;;;;7.40;5.90;;;24.00;99.90;;;;;;5045899;28;20457;-83
2021/07/23 12:12:53;;;;;;;7.17;5.20;;;23.80;99.90;;;;;;5060770;28;20446;-82
2021/07/23 12:15:22;;;;;;;8.00;5.63;;;23.50;99.90;;;;;;5059566;28;20499;-83
2021/07/23 12:17:49;;;;;;;5.80;5.20;;;22.80;99.90;;;;;;5058961;28;20450;-83
2021/07/23 12:20:26;;;;;;;6.07;5.40;;;22.70;99.90;;;;;;5055727;28;20474;-84
2021/07/23 12:22:58;;;;;;;7.23;5.77;;;22.80;99.90;;;;;;5051075;28;20435;-82
2021/07/23 12:25:27;;;;;;;5.97;5.27;;;22.60;99.90;;;;;;5055228;28;20489;-83
2021/07/23 12:28:12;;;;;;;8.00;4.90;;;22.70;99.90;;;;;;5057568;28;20434;-84
2021/07/23 12:30:42;;;;;;;7.30;5.73;;;22.50;99.90;;;;;;5057619;28;20954;-83
2021/07/23 12:33:13;;;;;;;8.00;7.20;;;22.50;99.90;;;;;;5056360;28;20457;-83
2021/07/23 12:35:40;;;;;;;6.43;5.53;;;22.40;99.90;;;;;;5048805;28;20478;-83
2021/07/23 12:38:08;;;;;;;8.37;6.50;;;22.30;99.90;;;;;;5056410;28;20442;-83
2021/07/23 12:40:50;;;;;;;7.57;5.30;;;22.20;99.90;;;;;;5059541;28;20530;-84
2021/07/23 12:43:19;;;;;;;7.03;6.30;;;22.00;99.90;;;;;;5043249;28;20447;-83
2021/07/23 12:45:48;;;;;;;7.30;5.20;;;21.90;99.90;;;;;;5034678;28;20488;-82
2021/07/23 12:48:17;;;;;;;7.10;6.23;;;21.80;99.90;;;;;;5058766;28;20493;-81
2021/07/23 12:50:45;;;;;;;5.37;4.83;;;21.90;99.90;;;;;;5061706;28;20489;-83
2021/07/23 12:53:24;;;;;;;5.83;5.00;;;21.90;99.90;;;;;;5062602;28;20573;-83
2021/07/23 12:55:56;;;;;;;7.10;6.20;;;21.90;99.90;;;;;;5054719;28;20438;-83
2021/07/23 12:58:39;;;;;;;7.70;5.50;;;21.90;99.90;;;;;;5038065;28;20494;-83
2021/07/23 13:01:09;;;;;;;7.30;5.30;;;21.90;99.90;;;;;;5057321;28;20469;-84
2021/07/23 13:03:36;;;;;;;12.70;7.73;;;21.90;99.90;;;;;;5062870;28;20443;-84
2021/07/23 13:06:03;;;;;;;7.50;6.67;;;22.00;99.90;;;;;;5058848;28;20472;-84
2021/07/23 13:08:31;;;;;;;8.37;7.50;;;22.00;99.90;;;;;;5057382;28;20493;-85
2021/07/23 13:10:58;;;;;;;8.53;7.27;;;22.00;99.90;;;;;;5051601;28;20501;-83
2021/07/23 13:13:26;;;;;;;9.20;5.90;;;22.00;99.90;;;;;;5057922;28;20461;-84
2021/07/23 13:15:53;;;;;;;8.40;6.30;;;22.10;99.90;;;;;;5056625;28;20446;-84
2021/07/23 13:18:22;;;;;;;10.47;7.80;;;22.20;99.90;;;;;;5052347;28;20448;-83
2021/07/23 13:20:51;;;;;;;10.10;7.60;;;22.20;99.90;;;;;;5058637;28;20500;-83
2021/07/23 13:23:19;;;;;;;6.83;5.40;;;22.20;99.90;;;;;;5056348;28;20449;-83
2021/07/23 13:25:46;;;;;;;8.93;7.27;;;22.20;99.90;;;;;;5066202;28;20477;-84
2021/07/23 13:28:19;;;;;;;7.57;6.20;;;22.30;99.90;;;;;;5062859;28;20453;-83
2021/07/23 13:30:47;;;;;;;9.20;8.17;;;22.20;99.90;;;;;;5059161;28;20553;-83
2021/07/23 13:33:14;;;;;;;12.93;10.40;;;22.10;99.90;;;;;;5062981;28;20449;-85
2021/07/23 13:35:47;;;;;;;10.23;7.63;;;22.10;99.90;;;;;;5051840;28;20456;-85
2021/07/23 13:38:19;;;;;;;11.63;9.13;;;22.20;99.90;;;;;;5061031;28;20461;-86
2021/07/23 13:40:50;;;;;;;8.70;7.17;;;22.20;99.90;;;;;;5061445;28;20469;-85
2021/07/23 13:43:18;;;;;;;8.57;7.50;;;22.30;99.90;;;;;;5065799;28;20468;-87
2021/07/23 13:45:50;;;;;;;12.90;9.80;;;22.40;99.90;;;;;;5061341;28;20479;-86
2021/07/23 13:48:20;;;;;;;9.70;8.33;;;22.40;99.90;;;;;;5063562;28;20482;-89
2021/07/23 13:50:49;;;;;;;6.73;6.03;;;22.50;99.90;;;;;;5054324;28;20466;-83
2021/07/23 13:53:19;;;;;;;9.23;8.33;;;22.60;99.90;;;;;;5069826;28;20465;-85
2021/07/23 13:55:47;;;;;;;5.57;5.00;;;22.70;99.90;;;;;;5055524;28;20435;-89
2021/07/23 13:58:14;;;;;;;7.50;5.90;;;22.60;99.90;;;;;;5067046;28;20451;-84
2021/07/23 14:00:42;;;;;;;6.53;5.80;;;22.70;99.90;;;;;;5058104;28;20451;-85
2021/07/23 14:03:09;;;;;;;9.97;7.90;;;22.80;99.90;;;;;;5054693;28;20462;-83
2021/07/23 14:05:39;;;;;;;11.30;7.80;;;22.80;99.90;;;;;;5054019;28;20478;-86
2021/07/23 14:08:08;;;;;;;7.27;6.00;;;22.80;99.90;;;;;;5051748;28;20466;-83
2021/07/23 14:10:35;;;;;;;8.83;5.47;;;22.80;99.90;;;;;;5061275;28;20455;-86
2021/07/23 14:13:03;;;;;;;9.57;7.60;;;22.80;99.90;;;;;;5057779;28;20581;-83
2021/07/23 14:15:31;;;;;;;8.60;6.27;;;22.90;99.90;;;;;;5060423;28;20445;-83
2021/07/23 14:17:59;;;;;;;10.10;6.20;;;22.70;99.90;;;;;;5057844;28;20437;-84
2021/07/23 14:20:26;;;;;;;7.43;5.40;;;22.60;99.90;;;;;;5057013;28;20464;-84
2021/07/23 14:22:53;;;;;;;8.47;6.47;;;22.60;99.90;;;;;;5055189;28;20478;-82
2021/07/23 14:25:22;;;;;;;10.10;7.77;;;22.80;99.90;;;;;;5054364;28;20550;-83
2021/07/23 14:27:49;;;;;;;10.33;7.33;;;22.80;99.90;;;;;;5061647;28;20430;-83
2021/07/23 14:30:17;;;;;;;9.00;7.97;;;22.80;99.90;;;;;;5056300;28;20471;-83
2021/07/23 14:32:45;;;;;;;10.23;5.87;;;22.80;99.90;;;;;;5064098;28;20435;-83
2021/07/23 14:35:13;;;;;;;9.53;7.03;;;22.70;99.90;;;;;;5057308;28;20458;-82
2021/07/23 14:37:40;;;;;;;10.60;6.90;;;22.80;99.90;;;;;;5062037;28;20474;-84
2021/07/23 14:40:09;;;;;;;7.33;6.40;;;22.80;99.90;;;;;;5055327;28;20475;-84
2021/07/23 14:42:38;;;;;;;8.13;6.20;;;22.90;99.90;;;;;;5045862;28;20419;-84
2021/07/23 14:45:06;;;;;;;7.07;6.40;;;23.00;99.90;;;;;;5061691;28;20461;-84
2021/07/23 14:47:34;;;;;;;11.20;6.97;;;23.00;99.90;;;;;;5053232;28;20477;-83
2021/07/23 14:50:01;;;;;;;6.90;6.20;;;23.00;99.90;;;;;;5056512;28;20581;-84
2021/07/23 14:52:28;;;;;;;8.80;6.80;;;23.00;99.90;;;;;;5062261;28;20438;-83
2021/07/23 14:54:55;;;;;;;7.83;7.13;;;23.10;99.90;;;;;;5053798;28;20466;-84